AirNav   Everest Fuels
 
 674 users online  

IS20 Presence St Joseph Hospital - Elgin Heliport
Elgin, Illinois, USA

GOING TO ELGIN?


FAA INFORMATION EFFECTIVE 18 JUNE 2020

Location

FAA Identifier: IS20
Lat/Long: 42-02-11.5900N 088-19-35.1600W
42-02.193167N 088-19.586000W
42.0365528,-88.3264333
(estimated)
Elevation: 846 ft. / 258 m (estimated)
Variation: 00W (1985)
From city: 3 miles W of ELGIN, IL
Time zone: UTC -5 (UTC -6 during Standard Time)
Zip code: 60123

Heliport Operations

Heliport use: Private use, MEDICAL USE.
Activation date: 05/1989
Control tower: no
ARTCC: CHICAGO CENTER
FSS: KANKAKEE FLIGHT SERVICE STATION
Attendance: CONTINUOUS
Wind indicator: lighted
Segmented circle: no
Lights: ACTVT PERIMETER AND FLOOD LGTS CALL 847-695-3200 EXT. 5220.
Beacon: white-green-yellow (heliport)
24 HRS

Heliport Communications

WX ASOS at DPA (9 nm SE): PHONE 630-587-3668
WX AWOS-3 at 06C (10 nm E): 128.275 ((847) 895-2887)
WX ASOS at ARR (17 nm SW): PHONE 630-466-5622
WX AWOS-3 at DKB (18 nm W): 119.075 (815-748-2350)
WX ASOS at ORD (19 nm E): PHONE 773-462-0118
WX ASOS at PWK (19 nm E): PHONE 847-465-0291

Nearby radio navigation aids

VOR radial/distance  VOR name  Freq  Var
DPAr005/8.8DUPAGE VOR/DME108.4002E
OBKr238/20.0NORTHBROOK VOR/DME113.0002W
JOTr357/29.4JOLIET VOR/DME112.3002E

Heliport Services

Runway Information

Helipad H1

Dimensions: 65 x 65 ft. / 20 x 20 m
Surface: concrete
Runway edge lights: PERI
AND FLOOD LGTS.
Latitude: 42-02.193167N
Longitude: 088-19.586000W
Elevation: 846.0 ft.
Traffic pattern: leftleft

Heliport Ownership and Management from official FAA records

Ownership: Privately-owned
Owner: PRESENCE HOSP DBA ST JOSEPH HOSP
77 N. AIRLITE ST
ELGIN, IL 60123
Phone 847-695-3200
Manager: MARIO TORRES
C/O ST JOSEPH HOSPITAL, 77 N. AIRLITE ST
ELGIN, IL 60123
Phone 847-695-3200
EMAIL ADDRESS: MARIO.TORRES@AMITAHEALTH.ORG (ALL LOWER CASE)

Additional Remarks

FOR CD CTC CHICAGO APCH AT 847-289-0926.
A52-H1 140' CHIMNEY 575'S; 7 STORY BLDG 135' SW; 43' BLDG 185' NW; AND LIGHTED PARKING AREA N OF PAD.

Instrument Procedures

There are no published instrument procedures at IS20.

Some nearby airports with instrument procedures:

KDPA - DuPage Airport (9 nm SE)
3CK - Lake in the Hills Airport (10 nm N)
KARR - Aurora Municipal Airport (17 nm SW)
KDKB - De Kalb Taylor Municipal Airport (18 nm W)
KORD - Chicago O'Hare International Airport (19 nm E)
KPWK - Chicago Executive Airport (19 nm E)
 
Loc | Ops | Rwys | IFR | FBO | Links
Com | Nav | Svcs | Stats | Notes
Area around IS20 (Presence St Joseph Hospital - Elgin Heliport)
 
Road maps at: MapQuest Bing Google
 
Aerial photo
No photo
 
Sectional chart

 
Airport distance calculator
Flying to Presence St Joseph Hospital - Elgin Heliport? Find the distance to fly.

From to IS20

Sunrise and sunset
Times for 11-Jul-2020
 Local
(UTC-5)
 Zulu
(UTC)
Morning civil twilight04:5609:56
Sunrise05:2910:29
Sunset20:2801:28
Evening civil twilight21:0202:02

Current date and time
Zulu (UTC)  11-Jul-2020 12:48:44
Local (UTC-5)  11-Jul-2020 07:48:44
 
METAR
KDPA 
8nm SE 
111152Z 28003KT 10SM CLR 21/18 A2992 RMK AO2 SLP125 7//// T02110178 10211 20189 50007
K06C 
10nm E 
111235Z AUTO 29003KT 10SM CLR 23/17 A2992 RMK AO2 T02300174
KARR 
18nm SW 
111152Z 27005KT 9SM CLR 19/18 A2993 RMK AO2 SLP129 T01940183 10194 20161 50007 $
KDKB 
18nm W 
111235Z AUTO 29004KT 10SM CLR 22/19 A2995 RMK AO2 T02210187
KORD 
18nm E 
111151Z 29003KT 10SM FEW250 23/17 A2990 RMK AO2 SLP121 7//// T02280172 10239 20217 50009
KPWK 
20nm E 
111152Z 31005KT 10SM CLR 23/18 A2992 RMK AO2 SLP125 70015 T02330178 10239 20217 51009
TAF
KDPA 
8nm SE 
111120Z 1112/1212 29007KT P6SM FEW250 FM111500 29009KT P6SM SCT050 BKN100 FM112200 25008KT P6SM SCT050 BKN080 TEMPO 1200/1204 VRB15G30KT 3SM TSRA BKN035CB FM120400 VRB05KT P6SM VCSH SCT025 BKN035 PROB30 1204/1210 6SM -SHRA BKN025
KORD 
18nm E 
111120Z 1112/1218 29007KT P6SM FEW250 FM111500 29009KT P6SM SCT050 BKN100 FM112200 25008KT P6SM SCT050 BKN080 TEMPO 1200/1204 VRB15G30KT 3SM TSRA BKN035CB FM120400 VRB05KT P6SM VCSH SCT025 BKN035 PROB30 1204/1210 6SM -SHRA BKN025 FM121300 04012KT P6SM BKN030
NOTAMs
Click for the latest NOTAMs
NOTAMs are issued by the DoD/FAA and will open in a separate window not controlled by AirNav.

 

 
 

Would you like to see your business listed on this page?

 If your business provides an interesting product or service to pilots, flight crews, aircraft, or users of the Presence St Joseph Hospital - Elgin Heliport, you should consider listing it here.  To start the listing process, click on the button below
 
Add a business
 

Other Pages about Presence St Joseph Hospital - Elgin Heliport

Update a link
 
Copyright © AirNav, LLC. All rights reserved. Privacy Policy  Contact